Time;durP1;ratioP1;P1;durP2;ratioP2;P2;SDS_P1;SDS_P2;PMS_P1;PMS_P2;Temp;Humidity;BMP_temperature;BMP_pressure;BME280_temperature;BME280_humidity;BME280_pressure;Samples;Min_cycle;Max_cycle;Signal;HPM_P1;HPM_P2
2021/06/28 00:00:29;;;;;;;6.57;2.50;;;21.90;84.00;;;;;;5029516;28;20495;-68
2021/06/28 00:03:34;;;;;;;5.65;2.30;;;21.90;83.90;;;;;;5034376;28;20048;-68
2021/06/28 00:06:38;;;;;;;5.90;2.70;;;21.90;83.90;;;;;;5034183;28;20068;-68
2021/06/28 00:09:42;;;;;;;3.30;2.00;;;22.00;83.50;;;;;;5034013;28;20052;-68
2021/06/28 00:12:49;;;;;;;9.23;2.40;;;22.00;83.40;;;;;;5033948;28;20052;-68
2021/06/28 00:15:56;;;;;;;6.22;2.33;;;22.00;83.00;;;;;;5032841;28;20052;-68
2021/06/28 00:19:02;;;;;;;5.25;2.28;;;22.00;83.40;;;;;;5033912;28;20048;-68
2021/06/28 00:22:07;;;;;;;4.20;2.35;;;21.90;83.80;;;;;;5033373;28;20541;-68
2021/06/28 00:25:16;;;;;;;12.02;2.53;;;21.80;84.50;;;;;;5033268;28;20384;-68
2021/06/28 00:28:21;;;;;;;5.30;2.03;;;21.70;84.90;;;;;;5033759;28;20048;-68
2021/06/28 00:31:25;;;;;;;5.45;2.20;;;21.60;85.50;;;;;;5033300;28;20053;-67
2021/06/28 00:34:30;;;;;;;3.90;2.20;;;21.60;85.60;;;;;;5033521;28;20522;-68
2021/06/28 00:37:35;;;;;;;6.97;1.95;;;21.60;85.70;;;;;;5026907;28;20041;-67
2021/06/28 00:40:41;;;;;;;6.65;2.42;;;21.60;86.20;;;;;;5013503;28;20061;-67
2021/06/28 00:43:45;;;;;;;5.03;2.58;;;21.60;86.30;;;;;;5012711;28;20045;-68
2021/06/28 00:46:49;;;;;;;3.78;2.30;;;21.60;86.30;;;;;;5013422;28;20053;-68
2021/06/28 00:49:53;;;;;;;4.72;2.30;;;21.60;86.20;;;;;;5013214;28;20048;-67
2021/06/28 00:53:00;;;;;;;4.47;2.20;;;21.50;86.70;;;;;;5013228;28;20044;-67
2021/06/28 00:56:10;;;;;;;2.97;2.10;;;21.50;86.50;;;;;;5012981;28;20472;-68
2021/06/28 00:59:17;;;;;;;6.78;2.97;;;21.40;86.50;;;;;;5013119;28;20049;-68
2021/06/28 01:02:22;;;;;;;3.35;2.30;;;21.40;86.90;;;;;;5012789;28;20062;-68
2021/06/28 01:05:32;;;;;;;4.53;2.08;;;21.40;86.80;;;;;;5020620;28;20507;-68
2021/06/28 01:08:36;;;;;;;5.72;2.60;;;21.40;87.10;;;;;;5028637;28;20044;-68
2021/06/28 01:11:40;;;;;;;5.40;2.53;;;21.30;87.60;;;;;;5012106;28;20049;-68
2021/06/28 01:14:45;;;;;;;5.55;2.53;;;21.10;88.00;;;;;;5028714;28;20052;-68
2021/06/28 01:17:51;;;;;;;3.60;2.45;;;21.00;88.10;;;;;;5032645;28;20400;-67
2021/06/28 01:20:57;;;;;;;6.25;2.40;;;21.00;88.70;;;;;;5031912;28;20041;-68
2021/06/28 01:24:01;;;;;;;3.90;2.10;;;21.00;88.90;;;;;;5012826;28;20045;-68
2021/06/28 01:27:07;;;;;;;5.63;2.53;;;20.90;89.30;;;;;;5012655;28;20044;-68
2021/06/28 01:30:16;;;;;;;4.30;2.45;;;20.90;89.60;;;;;;5012353;28;20392;-68
2021/06/28 01:33:21;;;;;;;3.97;2.30;;;20.80;89.80;;;;;;5012725;28;20045;-68
2021/06/28 01:36:25;;;;;;;3.72;2.42;;;20.70;90.20;;;;;;5012402;28;20048;-68
2021/06/28 01:39:29;;;;;;;4.85;2.50;;;20.70;90.20;;;;;;5021418;28;20041;-68
2021/06/28 01:42:35;;;;;;;7.38;2.50;;;20.60;90.50;;;;;;5032240;28;20056;-67
2021/06/28 01:45:40;;;;;;;5.85;3.00;;;20.50;90.80;;;;;;5032225;28;20060;-68
2021/06/28 01:48:44;;;;;;;3.22;2.28;;;20.50;91.10;;;;;;5032066;28;20045;-67
2021/06/28 01:51:49;;;;;;;6.35;2.30;;;20.50;91.30;;;;;;5031358;28;20044;-68
2021/06/28 01:54:53;;;;;;;7.05;2.95;;;20.50;91.60;;;;;;5031705;28;20671;-68
2021/06/28 01:58:00;;;;;;;4.57;2.60;;;20.40;91.70;;;;;;5031508;28;20036;-67
2021/06/28 02:01:06;;;;;;;14.45;3.00;;;20.40;92.00;;;;;;5029926;28;20053;-67
2021/06/28 02:04:18;;;;;;;5.25;3.08;;;20.30;92.20;;;;;;5031414;28;20048;-67
2021/06/28 02:07:24;;;;;;;;;;;20.30;92.60;;;;;;5031847;28;20044;-68
2021/06/28 02:10:28;;;;;;;3.85;2.60;;;20.30;92.90;;;;;;5031160;28;19928;-68
2021/06/28 02:13:35;;;;;;;6.72;3.08;;;20.30;93.00;;;;;;5034036;28;20048;-67
2021/06/28 02:16:49;;;;;;;5.55;2.85;;;20.30;93.10;;;;;;5010606;28;20416;-68
2021/06/28 02:19:54;;;;;;;7.72;2.95;;;20.30;93.20;;;;;;5011730;28;20045;-67
2021/06/28 02:23:10;;;;;;;5.40;3.35;;;20.30;93.20;;;;;;5011783;28;20049;-68
2021/06/28 02:26:15;;;;;;;3.53;2.20;;;20.20;93.40;;;;;;5011864;28;20060;-67
2021/06/28 02:29:19;;;;;;;7.72;2.90;;;20.20;93.70;;;;;;5011583;28;20117;-68
2021/06/28 02:32:24;;;;;;;5.63;2.40;;;20.20;94.00;;;;;;5015934;28;20057;-68
2021/06/28 02:35:30;;;;;;;3.95;2.65;;;20.20;94.10;;;;;;5027278;28;20048;-68
2021/06/28 02:38:35;;;;;;;4.47;2.65;;;20.10;94.10;;;;;;5024468;28;20041;-68
2021/06/28 02:41:41;;;;;;;7.47;2.47;;;20.20;94.10;;;;;;5010897;28;20045;-68
2021/06/28 02:45:07;;;;;;;9.82;2.65;;;20.20;94.30;;;;;;4994082;28;20052;-68
2021/06/28 02:48:11;;;;;;;4.90;2.33;;;20.20;94.60;;;;;;5026439;28;20048;-68
2021/06/28 02:51:16;;;;;;;7.20;2.90;;;20.20;94.70;;;;;;5030455;28;20048;-68
2021/06/28 02:54:22;;;;;;;7.00;2.58;;;20.10;95.00;;;;;;5030805;28;20384;-68
2021/06/28 02:57:26;;;;;;;6.40;2.60;;;20.00;95.10;;;;;;5030532;28;20435;-68
2021/06/28 03:00:30;;;;;;;6.68;2.58;;;20.00;95.50;;;;;;5030505;28;20061;-68
2021/06/28 03:03:09;;;;;;;5.68;2.85;;;19.90;95.80;;;;;;5066687;28;20904;-54
2021/06/28 03:05:47;;;;;;;13.02;3.00;;;19.90;96.10;;;;;;5066548;28;20374;-55
2021/06/28 03:08:25;;;;;;;5.00;2.65;;;19.80;96.40;;;;;;5106935;27;20368;-55
2021/06/28 03:11:04;;;;;;;5.82;2.40;;;19.80;96.60;;;;;;5107478;27;20372;-48
2021/06/28 03:13:41;;;;;;;4.20;2.70;;;19.70;96.90;;;;;;5107247;27;20728;-52
2021/06/28 03:16:19;;;;;;;6.22;2.70;;;19.70;97.40;;;;;;5066697;28;20746;-51
2021/06/28 03:18:58;;;;;;;7.25;3.28;;;19.60;97.50;;;;;;5066374;28;20911;-51
2021/06/28 03:21:36;;;;;;;4.53;2.65;;;19.60;97.70;;;;;;5107196;27;20753;-53
2021/06/28 03:24:14;;;;;;;9.23;2.85;;;19.60;97.80;;;;;;5086977;28;20388;-50
2021/06/28 03:26:52;;;;;;;5.03;3.33;;;19.70;97.80;;;;;;5107363;27;20383;-54
2021/06/28 03:29:30;;;;;;;5.50;2.97;;;19.70;97.80;;;;;;5066896;28;20385;-50
2021/06/28 03:32:09;;;;;;;5.85;2.60;;;19.80;97.70;;;;;;5107419;27;20376;-51
2021/06/28 03:34:47;;;;;;;7.07;2.45;;;19.80;97.60;;;;;;5086820;28;20381;-53
2021/06/28 03:37:25;;;;;;;6.18;2.67;;;19.80;97.60;;;;;;5107396;27;20379;-50
2021/06/28 03:40:04;;;;;;;6.68;2.67;;;19.80;97.80;;;;;;5107182;27;20379;-50
2021/06/28 03:42:42;;;;;;;4.57;2.70;;;19.80;97.80;;;;;;5107154;27;20402;-52
2021/06/28 03:45:20;;;;;;;6.00;2.60;;;19.80;97.80;;;;;;5087053;28;20377;-51
2021/06/28 03:47:58;;;;;;;7.00;2.58;;;19.80;97.90;;;;;;5066265;28;20386;-51
2021/06/28 03:50:37;;;;;;;5.25;2.83;;;19.80;98.00;;;;;;5066777;28;20378;-50
2021/06/28 03:53:14;;;;;;;3.85;2.60;;;19.80;98.00;;;;;;5107347;27;20874;-56
2021/06/28 03:55:52;;;;;;;6.28;2.20;;;19.80;97.90;;;;;;5066612;28;20389;-52
2021/06/28 03:58:31;;;;;;;5.95;2.58;;;19.80;98.00;;;;;;5023120;28;20397;-49
2021/06/28 04:01:09;;;;;;;12.40;3.10;;;19.90;98.00;;;;;;5107243;27;20376;-52
2021/06/28 04:03:49;;;;;;;7.40;2.55;;;19.90;98.10;;;;;;5086923;28;20381;-51
2021/06/28 04:06:27;;;;;;;10.52;2.33;;;19.90;98.10;;;;;;5107234;27;20826;-51
2021/06/28 04:09:05;;;;;;;5.88;2.92;;;19.90;98.10;;;;;;5107507;27;20384;-53
2021/06/28 04:11:43;;;;;;;8.18;4.10;;;20.00;98.20;;;;;;5107345;27;20898;-52
2021/06/28 04:14:21;;;;;;;5.07;2.50;;;20.00;98.10;;;;;;5107280;27;20380;-51
2021/06/28 04:17:00;;;;;;;4.80;2.53;;;20.00;98.10;;;;;;5107324;27;20376;-51
2021/06/28 04:19:38;;;;;;;10.02;2.65;;;20.10;98.30;;;;;;5107002;27;20376;-51
2021/06/28 04:22:16;;;;;;;7.82;2.83;;;20.10;98.10;;;;;;5107211;27;20383;-51
2021/06/28 04:24:54;;;;;;;9.00;3.25;;;20.20;98.10;;;;;;5066698;28;20382;-54
2021/06/28 04:27:33;;;;;;;5.38;2.47;;;20.30;98.10;;;;;;5085113;27;20393;-53
2021/06/28 04:30:13;;;;;;;3.45;2.38;;;20.40;98.00;;;;;;5095507;27;20381;-54
2021/06/28 04:32:51;;;;;;;7.35;2.85;;;20.90;97.60;;;;;;5075760;27;20749;-53
2021/06/28 04:35:30;;;;;;;10.15;2.90;;;21.90;96.60;;;;;;5090531;27;20381;-51
2021/06/28 04:38:07;;;;;;;14.98;3.17;;;22.80;95.10;;;;;;5094136;27;20466;-50
2021/06/28 04:40:47;;;;;;;14.98;3.63;;;23.60;94.00;;;;;;5088077;27;20370;-51
2021/06/28 04:43:25;;;;;;;6.55;2.75;;;24.50;92.70;;;;;;5048333;28;20392;-52
2021/06/28 04:46:03;;;;;;;11.35;2.60;;;25.20;91.90;;;;;;5053941;28;20383;-51
2021/06/28 04:48:41;;;;;;;6.55;2.83;;;25.80;90.90;;;;;;5049688;28;20388;-51
2021/06/28 04:51:21;;;;;;;6.07;2.55;;;26.20;90.10;;;;;;5106124;27;20455;-51
2021/06/28 04:53:59;;;;;;;8.88;2.85;;;26.60;89.50;;;;;;5124660;27;20335;-49
2021/06/28 04:56:36;;;;;;;9.98;3.50;;;27.10;88.90;;;;;;5055532;28;20376;-51
2021/06/28 04:59:16;;;;;;;5.70;2.65;;;27.60;86.50;;;;;;5050386;28;20380;-52
2021/06/28 05:01:55;;;;;;;7.60;2.78;;;28.30;85.90;;;;;;5063050;28;20376;-52
2021/06/28 05:04:34;;;;;;;8.25;2.83;;;29.00;83.30;;;;;;5043054;28;20386;-49
2021/06/28 05:07:10;;;;;;;10.02;3.17;;;29.40;81.30;;;;;;5066597;28;20146;-51
2021/06/28 05:09:47;;;;;;;8.05;3.00;;;30.20;80.90;;;;;;5051047;28;20138;-51
2021/06/28 05:12:23;;;;;;;7.50;2.95;;;30.90;78.70;;;;;;5048707;28;20147;-51
2021/06/28 05:15:04;;;;;;;10.20;2.97;;;29.60;78.50;;;;;;5066871;28;20375;-51
2021/06/28 05:17:42;;;;;;;8.30;2.60;;;29.10;80.20;;;;;;5049671;28;20391;-51
2021/06/28 05:20:20;;;;;;;8.80;2.33;;;29.00;81.30;;;;;;5049966;27;20384;-51
2021/06/28 05:22:58;;;;;;;6.43;2.90;;;28.30;81.80;;;;;;5066720;28;20382;-49
2021/06/28 05:25:36;;;;;;;4.50;2.15;;;27.40;83.40;;;;;;5066780;28;20375;-52
2021/06/28 05:28:15;;;;;;;6.28;2.80;;;28.70;83.10;;;;;;5067406;27;20362;-51
2021/06/28 05:30:54;;;;;;;7.78;2.38;;;29.80;82.10;;;;;;5061361;28;20377;-49
2021/06/28 05:33:32;;;;;;;11.10;2.90;;;30.80;80.00;;;;;;5066989;28;20375;-51
2021/06/28 05:36:10;;;;;;;7.18;2.25;;;31.00;78.40;;;;;;5056467;28;20380;-50
2021/06/28 05:38:49;;;;;;;4.35;2.55;;;31.60;78.10;;;;;;5086380;28;20377;-50
2021/06/28 05:41:25;;;;;;;4.38;2.17;;;31.90;77.50;;;;;;5063240;28;20565;-52
2021/06/28 05:44:04;;;;;;;7.15;2.15;;;32.40;76.90;;;;;;5061863;28;20921;-52
2021/06/28 05:46:42;;;;;;;11.40;3.38;;;31.60;76.80;;;;;;5059232;28;20390;-52
2021/06/28 05:49:18;;;;;;;8.68;2.70;;;27.50;82.00;;;;;;5059239;28;20153;-49
2021/06/28 05:51:58;;;;;;;3.15;2.60;;;26.00;86.20;;;;;;5106185;27;20372;-51
2021/06/28 05:54:37;;;;;;;6.85;2.85;;;25.40;87.70;;;;;;5062752;28;20384;-51
2021/06/28 05:57:19;;;;;;;6.95;2.67;;;26.50;87.50;;;;;;5066351;28;20371;-50
2021/06/28 05:59:56;;;;;;;6.68;2.47;;;28.30;84.80;;;;;;5095262;27;20389;-52
2021/06/28 06:02:34;;;;;;;7.45;3.33;;;29.10;82.60;;;;;;5066001;28;20387;-52
2021/06/28 06:05:12;;;;;;;8.75;2.92;;;29.80;81.50;;;;;;5066523;28;20371;-52
2021/06/28 06:07:50;;;;;;;5.80;2.38;;;30.50;80.10;;;;;;5054988;28;20369;-50
2021/06/28 06:10:27;;;;;;;4.22;2.13;;;31.10;79.30;;;;;;5166299;27;20127;-51
2021/06/28 06:13:05;;;;;;;10.27;2.53;;;30.70;78.90;;;;;;5064675;28;20923;-51
2021/06/28 06:15:43;;;;;;;7.18;2.10;;;29.50;81.10;;;;;;5066569;28;20379;-51
2021/06/28 06:18:22;;;;;;;6.97;2.47;;;30.40;80.10;;;;;;5065949;28;20390;-52
2021/06/28 06:21:00;;;;;;;4.93;2.08;;;30.60;79.50;;;;;;5065643;28;20382;-51
2021/06/28 06:23:38;;;;;;;5.00;2.40;;;31.20;78.20;;;;;;5066183;28;20383;-49
2021/06/28 06:26:17;;;;;;;6.07;2.45;;;32.10;77.10;;;;;;5106911;27;20376;-50
2021/06/28 06:28:54;;;;;;;4.63;2.17;;;32.20;76.60;;;;;;5056020;28;20380;-49
2021/06/28 06:31:33;;;;;;;6.45;2.60;;;32.70;75.70;;;;;;5106926;27;20438;-52
2021/06/28 06:34:11;;;;;;;8.88;2.60;;;32.70;75.10;;;;;;5051614;28;20372;-52
2021/06/28 06:36:50;;;;;;;6.00;2.20;;;32.60;75.80;;;;;;5087102;27;20408;-49
2021/06/28 06:39:28;;;;;;;4.10;1.83;;;32.00;75.50;;;;;;5095750;27;20747;-49
2021/06/28 06:42:06;;;;;;;5.05;2.70;;;31.70;76.40;;;;;;5053273;28;20382;-51
2021/06/28 06:44:44;;;;;;;10.27;1.90;;;32.10;75.50;;;;;;5060944;28;20921;-50
2021/06/28 06:47:22;;;;;;;7.63;2.17;;;31.70;74.70;;;;;;5067897;27;20390;-50
2021/06/28 06:49:58;;;;;;;11.63;2.30;;;30.30;76.50;;;;;;5066760;28;20520;-51
2021/06/28 06:52:37;;;;;;;4.28;2.15;;;29.30;79.10;;;;;;5067191;28;20881;-50
2021/06/28 06:55:16;;;;;;;4.93;1.98;;;29.40;79.90;;;;;;5066811;28;20390;-50
2021/06/28 06:57:53;;;;;;;6.07;2.42;;;30.30;79.30;;;;;;5066813;28;20434;-49
2021/06/28 07:00:31;;;;;;;12.52;2.38;;;31.30;77.10;;;;;;5066374;28;20387;-51
2021/06/28 07:03:10;;;;;;;5.28;1.80;;;31.10;77.30;;;;;;5066980;28;20387;-52
2021/06/28 07:06:14;;;;;;;4.18;1.80;;;31.00;77.50;;;;;;5061561;22;20045;-50
2021/06/28 07:08:52;;;;;;;6.10;1.85;;;32.20;75.10;;;;;;5067122;28;20386;-49
2021/06/28 07:11:30;;;;;;;7.38;1.77;;;33.10;74.40;;;;;;5107222;27;20372;-50
2021/06/28 07:14:08;;;;;;;6.63;2.00;;;33.30;73.70;;;;;;5062603;28;20396;-49
2021/06/28 07:16:47;;;;;;;4.07;1.40;;;33.90;71.90;;;;;;5052360;28;20379;-50
2021/06/28 07:19:24;;;;;;;4.38;1.63;;;34.60;70.50;;;;;;5084762;27;20759;-48
2021/06/28 07:22:03;;;;;;;3.22;1.58;;;34.80;70.70;;;;;;5066494;28;20897;-49
2021/06/28 07:24:41;;;;;;;3.97;1.45;;;34.30;71.10;;;;;;5067041;28;20383;-48
2021/06/28 07:27:21;;;;;;;6.10;1.58;;;34.60;70.00;;;;;;5066762;27;20391;-49
2021/06/28 07:29:57;;;;;;;2.92;1.48;;;35.00;69.60;;;;;;5067470;28;20383;-49
2021/06/28 07:32:36;;;;;;;6.45;1.67;;;34.90;68.60;;;;;;5066591;28;20379;-48
2021/06/28 07:35:14;;;;;;;8.57;1.40;;;36.20;67.90;;;;;;5061920;28;20386;-48
2021/06/28 07:37:52;;;;;;;4.15;1.50;;;36.20;67.40;;;;;;5066453;28;20393;-48
2021/06/28 07:40:30;;;;;;;5.28;1.95;;;35.80;66.90;;;;;;5080494;27;20374;-48
2021/06/28 07:43:08;;;;;;;11.63;1.55;;;36.10;66.90;;;;;;5067113;28;20367;-49
2021/06/28 07:45:47;;;;;;;4.35;1.55;;;36.30;67.00;;;;;;5086858;28;20141;-49
2021/06/28 07:48:25;;;;;;;7.53;1.48;;;35.60;66.10;;;;;;5067160;28;20374;-49
2021/06/28 07:51:03;;;;;;;6.60;1.30;;;36.90;66.20;;;;;;5066433;28;20382;-47
2021/06/28 07:53:41;;;;;;;4.93;1.30;;;38.20;64.90;;;;;;5075066;28;20898;-46
2021/06/28 07:56:19;;;;;;;4.03;1.80;;;39.30;63.30;;;;;;5066518;28;20385;-48
2021/06/28 07:58:58;;;;;;;3.08;1.33;;;40.30;62.40;;;;;;5066713;28;20374;-49
2021/06/28 08:01:36;;;;;;;4.43;1.30;;;40.80;61.00;;;;;;5066211;28;20390;-49
2021/06/28 08:04:14;;;;;;;4.72;1.10;;;41.20;61.40;;;;;;5066647;28;20378;-49
2021/06/28 08:06:52;;;;;;;6.63;1.00;;;39.70;60.80;;;;;;5066709;28;20379;-50
2021/06/28 08:09:30;;;;;;;3.40;1.00;;;39.70;60.50;;;;;;5067064;28;20375;-48
2021/06/28 08:12:10;;;;;;;5.10;1.20;;;39.30;60.30;;;;;;5066206;28;20383;-48
2021/06/28 08:14:48;;;;;;;2.03;1.10;;;40.00;60.80;;;;;;5127863;27;20888;-47
2021/06/28 08:17:27;;;;;;;3.92;1.20;;;40.30;60.90;;;;;;5047527;28;20396;-47
2021/06/28 08:20:07;;;;;;;5.15;1.30;;;40.80;60.00;;;;;;5048780;28;20392;-49
2021/06/28 08:22:45;;;;;;;2.25;1.13;;;38.60;59.70;;;;;;5066508;28;20375;-47
2021/06/28 08:25:25;;;;;;;3.58;1.45;;;39.20;61.70;;;;;;5066774;28;20390;-48
2021/06/28 08:28:03;;;;;;;5.25;1.30;;;40.50;61.20;;;;;;5059139;28;20384;-47
2021/06/28 08:30:41;;;;;;;4.82;1.10;;;41.60;60.40;;;;;;5048197;28;20385;-47
2021/06/28 08:33:19;;;;;;;6.00;1.40;;;41.90;59.90;;;;;;5048084;28;20376;-49
2021/06/28 08:35:57;;;;;;;12.98;2.35;;;42.70;59.50;;;;;;5050617;28;20381;-48
2021/06/28 08:38:35;;;;;;;6.15;1.20;;;42.80;59.10;;;;;;5066767;28;20383;-49
2021/06/28 08:41:15;;;;;;;16.02;1.63;;;42.80;58.90;;;;;;5050859;28;20373;-48
2021/06/28 08:43:54;;;;;;;12.68;1.23;;;41.40;60.70;;;;;;5083866;28;20920;-52
2021/06/28 08:46:32;;;;;;;5.25;1.40;;;42.20;59.50;;;;;;5094193;27;20398;-48
2021/06/28 08:49:11;;;;;;;4.47;1.50;;;42.90;59.40;;;;;;5048364;28;20372;-54
2021/06/28 08:51:50;;;;;;;3.60;1.55;;;43.30;59.10;;;;;;5047803;28;20384;-51
2021/06/28 08:54:28;;;;;;;6.35;1.27;;;44.40;58.50;;;;;;5088556;27;20374;-51
2021/06/28 08:57:06;;;;;;;3.35;1.05;;;45.10;57.70;;;;;;5048678;28;20774;-49
2021/06/28 08:59:44;;;;;;;4.32;1.10;;;46.00;57.20;;;;;;5051696;28;20901;-50
2021/06/28 09:02:22;;;;;;;8.43;1.42;;;45.90;56.80;;;;;;5046351;28;20884;-51
2021/06/28 09:05:02;;;;;;;11.57;1.65;;;46.30;56.20;;;;;;5066669;28;20134;-50
2021/06/28 09:07:41;;;;;;;13.05;1.95;;;46.60;55.80;;;;;;5087613;27;20373;-52
2021/06/28 09:10:38;;;;;;;2.60;1.25;;;46.60;56.10;;;;;;5067179;28;20383;-52
2021/06/28 09:13:16;;;;;;;3.95;1.02;;;47.00;56.00;;;;;;5066926;28;20375;-48
2021/06/28 09:15:54;;;;;;;4.40;1.10;;;46.20;56.00;;;;;;5066635;28;20379;-48
2021/06/28 09:18:32;;;;;;;10.55;1.30;;;46.50;56.20;;;;;;5086255;28;20392;-49
2021/06/28 09:21:10;;;;;;;9.50;1.40;;;45.60;55.60;;;;;;5066951;28;20388;-49
2021/06/28 09:23:49;;;;;;;6.90;1.40;;;45.80;56.10;;;;;;5066172;28;20477;-49
2021/06/28 09:26:36;;;;;;;11.23;1.67;;;44.50;57.00;;;;;;5066621;28;20375;-49
2021/06/28 09:29:14;;;;;;;8.60;1.33;;;44.90;56.80;;;;;;5066614;28;20379;-49
2021/06/28 09:31:53;;;;;;;3.17;1.20;;;44.10;56.80;;;;;;5066924;28;20379;-49
2021/06/28 09:34:33;;;;;;;7.68;1.42;;;44.90;56.70;;;;;;5087041;27;20373;-48
2021/06/28 09:37:17;;;;;;;5.95;1.27;;;46.00;55.40;;;;;;5107267;27;20384;-48
2021/06/28 09:39:57;;;;;;;3.53;1.20;;;46.70;54.60;;;;;;5067029;28;20765;-48
2021/06/28 09:42:34;;;;;;;8.25;1.63;;;46.50;54.90;;;;;;5066154;28;20379;-49
2021/06/28 09:45:20;;;;;;;6.13;1.10;;;47.70;54.00;;;;;;5066745;28;20382;-48
2021/06/28 09:47:59;;;;;;;5.05;1.40;;;47.10;53.80;;;;;;5066894;28;20379;-49
2021/06/28 09:50:41;;;;;;;4.50;2.20;;;47.50;53.90;;;;;;5058603;28;20386;-48
2021/06/28 09:53:37;;;;;;;7.22;1.40;;;46.20;53.20;;;;;;5176123;27;20730;-48
2021/06/28 09:56:32;;;;;;;8.85;1.40;;;47.20;54.20;;;;;;5163810;27;20895;-48
2021/06/28 09:59:35;;;;;;;6.22;1.33;;;43.90;54.60;;;;;;5085084;27;20403;-49
2021/06/28 10:02:29;;;;;;;5.25;1.65;;;44.40;56.40;;;;;;5044281;28;20405;-48
2021/06/28 10:05:55;;;;;;;4.35;1.35;;;42.80;56.60;;;;;;5160171;27;20414;-48
2021/06/28 10:08:46;;;;;;;7.88;1.30;;;42.10;57.20;;;;;;5189517;27;20395;-49
2021/06/28 10:11:45;;;;;;;9.43;2.38;;;44.40;56.80;;;;;;5087474;27;20413;-49
2021/06/28 10:14:40;;;;;;;5.35;1.40;;;45.80;55.50;;;;;;5184971;27;20387;-49
2021/06/28 10:17:36;;;;;;;6.40;1.25;;;46.50;54.70;;;;;;5190658;27;20382;-47
2021/06/28 10:20:33;;;;;;;4.57;1.50;;;45.20;54.10;;;;;;5184350;27;20423;-49
2021/06/28 10:23:25;;;;;;;6.40;1.38;;;45.50;53.90;;;;;;5087361;27;20391;-51
2021/06/28 10:26:16;;;;;;;6.20;1.25;;;44.80;53.40;;;;;;5088756;27;20180;-49
2021/06/28 10:29:08;;;;;;;8.82;1.48;;;44.30;53.90;;;;;;5093131;27;20786;-47
2021/06/28 10:32:09;;;;;;;6.95;1.30;;;45.60;54.10;;;;;;5120323;27;20147;-49
2021/06/28 10:35:00;;;;;;;3.28;1.40;;;43.50;54.10;;;;;;5096364;27;20408;-48
2021/06/28 10:38:01;;;;;;;7.72;1.48;;;45.20;54.50;;;;;;5147089;27;20326;-48
2021/06/28 10:41:05;;;;;;;4.60;1.40;;;44.60;55.20;;;;;;5128653;27;20399;-46
2021/06/28 10:44:13;;;;;;;7.45;1.58;;;46.00;53.40;;;;;;5128700;27;20887;-48
2021/06/28 10:47:08;;;;;;;3.42;1.42;;;47.60;53.20;;;;;;5046631;28;20772;-48
2021/06/28 10:49:52;;;;;;;3.83;1.27;;;48.30;52.40;;;;;;5066514;28;20134;-47
2021/06/28 10:52:42;;;;;;;5.75;1.30;;;48.10;48.90;;;;;;5045907;28;20390;-47
2021/06/28 10:56:36;;;;;;;7.95;1.38;;;48.30;50.40;;;;;;5007343;28;20386;-49
2021/06/28 10:59:59;;;;;;;6.60;1.45;;;46.20;52.00;;;;;;5007284;28;20042;-48
2021/06/28 11:03:30;;;;;;;11.68;2.20;;;43.10;53.10;;;;;;5007128;28;20493;-48
2021/06/28 11:06:52;;;;;;;5.70;1.40;;;43.00;54.50;;;;;;5006312;28;20436;-47
2021/06/28 11:10:35;;;;;;;3.97;1.58;;;41.70;55.50;;;;;;5014598;28;20046;-48
2021/06/28 11:13:58;;;;;;;5.57;1.73;;;44.50;53.00;;;;;;5006335;28;20521;-50
2021/06/28 11:17:25;;;;;;;6.88;1.65;;;45.00;52.50;;;;;;5022613;28;20037;-48
2021/06/28 11:20:52;;;;;;;5.78;1.55;;;43.30;53.00;;;;;;5028355;28;20041;-47
2021/06/28 11:24:31;;;;;;;4.82;1.42;;;45.20;52.90;;;;;;5012737;28;20038;-48
2021/06/28 11:27:22;;;;;;;5.30;1.35;;;43.20;52.00;;;;;;5087428;27;20417;-47
2021/06/28 11:30:23;;;;;;;7.20;1.58;;;42.30;53.50;;;;;;5119261;27;20354;-49
2021/06/28 11:33:14;;;;;;;8.65;1.38;;;43.90;52.30;;;;;;5086154;27;20417;-47
2021/06/28 11:36:29;;;;;;;6.47;1.40;;;43.70;52.10;;;;;;5075546;28;20033;-48
2021/06/28 11:39:33;;;;;;;6.68;1.55;;;41.60;50.70;;;;;;5062314;28;20037;-49
2021/06/28 11:42:27;;;;;;;10.93;1.80;;;41.00;49.40;;;;;;5038120;28;20799;-47
2021/06/28 11:45:18;;;;;;;4.00;1.30;;;38.60;49.40;;;;;;5071683;27;20398;-48
2021/06/28 11:48:11;;;;;;;6.45;1.48;;;39.70;49.80;;;;;;5112641;27;20346;-48
2021/06/28 11:51:26;;;;;;;6.13;1.25;;;39.00;50.10;;;;;;5131017;27;20952;-50
2021/06/28 11:54:26;;;;;;;5.80;1.50;;;38.50;52.20;;;;;;5125778;27;20398;-48
2021/06/28 11:57:22;;;;;;;5.90;1.15;;;39.20;51.70;;;;;;5172625;27;20940;-49
2021/06/28 12:00:27;;;;;;;6.65;1.20;;;38.60;53.40;;;;;;5119771;27;20429;-49
2021/06/28 12:03:26;;;;;;;5.30;1.75;;;37.60;52.60;;;;;;5077357;27;20406;-48
2021/06/28 12:06:18;;;;;;;13.18;1.80;;;37.40;52.10;;;;;;5069853;27;20424;-49
2021/06/28 12:09:11;;;;;;;5.88;1.40;;;36.60;51.60;;;;;;5109151;27;20768;-48
2021/06/28 12:12:07;;;;;;;3.95;1.67;;;37.30;51.70;;;;;;5104353;27;20433;-49
2021/06/28 12:14:59;;;;;;;12.52;1.80;;;37.70;51.40;;;;;;5075717;27;20404;-48
2021/06/28 12:18:09;;;;;;;7.57;2.00;;;37.00;51.40;;;;;;5107048;27;20425;-48
2021/06/28 12:21:00;;;;;;;3.75;1.27;;;37.30;50.60;;;;;;5088377;27;20410;-47
2021/06/28 12:24:07;;;;;;;5.88;1.50;;;37.60;49.90;;;;;;5013737;27;20363;-48
2021/06/28 12:27:05;;;;;;;6.75;1.65;;;37.50;51.30;;;;;;5073458;27;20407;-47
2021/06/28 12:29:43;;;;;;;8.65;1.92;;;38.00;51.30;;;;;;5056403;28;20404;-49
2021/06/28 12:32:21;;;;;;;7.55;1.92;;;38.30;51.40;;;;;;5054483;28;20136;-49
2021/06/28 12:35:03;;;;;;;6.80;1.85;;;37.30;51.00;;;;;;5056131;28;20386;-48
2021/06/28 12:37:48;;;;;;;12.77;1.83;;;36.30;50.60;;;;;;5036521;28;20385;-49
2021/06/28 12:40:32;;;;;;;5.55;1.80;;;36.70;51.70;;;;;;5059024;28;20386;-47
2021/06/28 12:43:13;;;;;;;9.10;1.67;;;37.40;50.40;;;;;;5057304;27;20387;-49
2021/06/28 12:45:52;;;;;;;10.68;2.00;;;37.40;51.70;;;;;;5043115;28;20895;-50
2021/06/28 12:48:31;;;;;;;7.43;2.10;;;37.60;51.70;;;;;;5137547;27;20384;-49
2021/06/28 12:51:09;;;;;;;6.85;2.03;;;37.00;52.60;;;;;;5057146;28;20377;-48
2021/06/28 12:53:48;;;;;;;16.70;2.20;;;35.80;52.40;;;;;;5056359;28;20403;-48
2021/06/28 12:56:39;;;;;;;8.38;2.13;;;35.90;55.00;;;;;;5077538;27;20408;-49
2021/06/28 12:59:37;;;;;;;11.93;2.30;;;36.50;53.70;;;;;;5087728;27;20746;-48
2021/06/28 13:02:33;;;;;;;5.70;1.88;;;36.50;53.40;;;;;;5075975;27;20406;-48
2021/06/28 13:05:39;;;;;;;7.43;1.90;;;35.90;53.00;;;;;;5097518;23;20460;-68
2021/06/28 13:08:37;;;;;;;7.57;2.08;;;36.20;54.40;;;;;;5078563;27;20419;-53
2021/06/28 13:11:45;;;;;;;5.05;1.73;;;37.00;53.80;;;;;;5077261;27;20930;-48
2021/06/28 13:14:44;;;;;;;9.75;1.92;;;37.40;51.80;;;;;;5069800;27;20400;-51
2021/06/28 13:17:41;;;;;;;8.55;1.98;;;36.90;51.50;;;;;;5178882;27;20390;-50
2021/06/28 13:20:38;;;;;;;12.50;2.10;;;37.00;50.70;;;;;;5076425;27;20532;-48
2021/06/28 13:23:32;;;;;;;7.82;1.73;;;37.30;52.00;;;;;;5103547;27;20921;-48
2021/06/28 13:26:27;;;;;;;17.65;3.10;;;37.70;49.30;;;;;;5100860;27;20762;-51
2021/06/28 13:29:18;;;;;;;8.80;2.00;;;37.40;50.80;;;;;;5076434;27;20400;-48
2021/06/28 13:32:43;;;;;;;12.30;2.55;;;37.40;50.60;;;;;;5076854;27;20403;-51
2021/06/28 13:35:46;;;;;;;16.77;2.35;;;37.20;50.70;;;;;;5126589;27;20139;-50
2021/06/28 13:38:56;;;;;;;11.30;2.22;;;36.50;52.30;;;;;;5116755;27;20419;-49
2021/06/28 13:41:48;;;;;;;7.05;2.35;;;36.70;49.80;;;;;;5030940;28;20411;-51
2021/06/28 13:45:06;;;;;;;6.07;2.08;;;37.60;50.60;;;;;;5113288;27;20534;-52
2021/06/28 13:48:03;;;;;;;9.30;2.25;;;37.90;50.00;;;;;;5069276;27;20388;-53
2021/06/28 13:50:55;;;;;;;8.50;2.53;;;38.30;50.50;;;;;;5071734;27;20770;-49
2021/06/28 13:53:46;;;;;;;13.80;2.33;;;37.90;50.40;;;;;;5109290;27;20353;-49
2021/06/28 13:56:41;;;;;;;17.35;2.42;;;36.60;50.50;;;;;;5108267;27;20884;-51
2021/06/28 13:59:33;;;;;;;15.40;3.35;;;36.60;52.70;;;;;;5108512;27;20366;-53
2021/06/28 14:02:26;;;;;;;15.00;3.40;;;35.90;51.80;;;;;;5101325;27;20430;-49
2021/06/28 14:05:20;;;;;;;14.77;2.30;;;36.40;53.00;;;;;;5070395;27;20402;-48
2021/06/28 14:08:17;;;;;;;6.70;2.25;;;36.70;52.30;;;;;;5174963;27;20402;-50
2021/06/28 14:11:09;;;;;;;11.52;3.00;;;36.50;52.40;;;;;;5074338;27;20403;-53
2021/06/28 14:14:01;;;;;;;11.32;2.55;;;36.90;53.80;;;;;;5108914;27;20349;-50
2021/06/28 14:16:51;;;;;;;12.93;2.45;;;37.20;51.30;;;;;;5114813;27;20395;-49
2021/06/28 14:19:48;;;;;;;15.77;2.38;;;37.40;52.70;;;;;;5085690;27;20457;-51
2021/06/28 14:22:40;;;;;;;13.90;2.20;;;37.30;53.00;;;;;;5067946;27;20383;-51
2021/06/28 14:25:32;;;;;;;11.93;2.40;;;37.70;53.20;;;;;;5070944;27;20415;-49
2021/06/28 14:28:40;;;;;;;13.13;2.50;;;38.10;52.20;;;;;;5129624;27;20838;-50
2021/06/28 14:31:47;;;;;;;12.80;2.83;;;38.30;52.60;;;;;;5108737;27;20392;-51
2021/06/28 14:34:38;;;;;;;15.75;3.88;;;37.20;52.70;;;;;;5070493;27;20408;-49
2021/06/28 14:37:32;;;;;;;11.13;2.67;;;36.10;53.40;;;;;;5087723;27;20656;-50
2021/06/28 14:40:26;;;;;;;12.25;3.05;;;35.80;53.20;;;;;;5134534;27;20107;-48
2021/06/28 14:43:21;;;;;;;12.77;2.63;;;36.20;53.50;;;;;;5091548;27;20571;-48